createdAt,value
2023-02-14T00:00:52.249Z,30.77
2023-02-14T00:03:19.449Z,34.73
2023-02-14T00:05:47.037Z,33.50
2023-02-14T00:08:14.447Z,29.50
2023-02-14T00:10:41.666Z,32.87
2023-02-14T00:13:08.487Z,30.57
2023-02-14T00:15:35.349Z,30.03
2023-02-14T00:18:03.241Z,32.53
2023-02-14T00:20:30.197Z,26.43
2023-02-14T00:22:57.028Z,25.70
2023-02-14T00:25:23.914Z,27.27
2023-02-14T00:27:50.926Z,27.63
2023-02-14T00:30:17.851Z,28.57
2023-02-14T00:32:44.686Z,22.97
2023-02-14T00:35:11.888Z,22.57
2023-02-14T00:37:41.115Z,23.53
2023-02-14T00:40:08.239Z,28.27
2023-02-14T00:42:35.422Z,25.37
2023-02-14T00:45:02.214Z,25.10
2023-02-14T00:47:29.113Z,28.27
2023-02-14T00:49:56.008Z,26.87
2023-02-14T00:52:25.559Z,23.90
2023-02-14T00:54:52.450Z,23.47
2023-02-14T00:57:19.248Z,24.97
2023-02-14T00:59:46.182Z,25.43
2023-02-14T01:02:13.003Z,26.40
2023-02-14T01:04:39.911Z,24.10
2023-02-14T01:07:07.323Z,22.77
2023-02-14T01:09:35.162Z,26.83
2023-02-14T01:12:02.225Z,25.33
2023-02-14T01:14:29.172Z,23.73
2023-02-14T01:16:56.032Z,29.90
2023-02-14T01:19:24.461Z,25.57
2023-02-14T01:21:51.356Z,24.57
2023-02-14T01:24:18.158Z,24.27
2023-02-14T01:26:45.634Z,21.63
2023-02-14T01:29:12.431Z,26.10
2023-02-14T01:31:39.429Z,24.40
2023-02-14T01:34:06.495Z,23.43
2023-02-14T01:36:37.667Z,26.37
2023-02-14T01:39:07.109Z,26.03
2023-02-14T01:41:35.037Z,24.33
2023-02-14T01:44:07.422Z,24.77
2023-02-14T01:46:35.554Z,23.30
2023-02-14T01:49:02.381Z,23.03
2023-02-14T01:51:29.637Z,23.63
2023-02-14T01:53:57.092Z,24.57
2023-02-14T01:56:34.229Z,23.00
2023-02-14T01:59:02.325Z,22.50
2023-02-14T02:01:29.900Z,22.03
2023-02-14T02:03:59.195Z,20.73
2023-02-14T02:06:28.241Z,25.50
2023-02-14T02:09:14.456Z,21.00
2023-02-14T02:11:41.861Z,24.30
2023-02-14T02:14:16.195Z,23.10
2023-02-14T02:17:01.650Z,22.07
2023-02-14T02:19:43.869Z,19.13
2023-02-14T02:22:15.231Z,21.57
2023-02-14T02:24:57.818Z,25.33
2023-02-14T02:27:26.441Z,22.47
2023-02-14T02:30:02.637Z,21.73
2023-02-14T02:32:39.913Z,19.70
2023-02-14T02:35:15.937Z,21.00
2023-02-14T02:37:51.833Z,24.00
2023-02-14T02:40:27.255Z,21.07
2023-02-14T02:43:04.294Z,19.63
2023-02-14T02:46:01.468Z,21.27
2023-02-14T02:48:34.651Z,21.03
2023-02-14T02:51:23.070Z,21.63
2023-02-14T02:54:14.236Z,19.10
2023-02-14T02:56:47.032Z,18.43
2023-02-14T02:59:20.039Z,16.70
2023-02-14T03:02:06.047Z,18.70
2023-02-14T03:04:52.735Z,21.10
2023-02-14T03:07:40.631Z,19.70
2023-02-14T03:10:17.785Z,20.00
2023-02-14T03:12:54.736Z,22.90
2023-02-14T03:15:21.927Z,19.93
2023-02-14T03:17:51.630Z,25.30
2023-02-14T03:20:26.463Z,17.03
2023-02-14T03:22:59.238Z,20.17
2023-02-14T03:25:41.817Z,17.40
2023-02-14T03:28:13.425Z,18.40
2023-02-14T03:30:58.624Z,21.17
2023-02-14T03:33:44.005Z,19.00
2023-02-14T03:36:16.626Z,17.57
2023-02-14T03:38:49.855Z,20.33
2023-02-14T03:41:21.602Z,20.50
2023-02-14T03:43:51.690Z,18.90
2023-02-14T03:46:25.872Z,21.47
2023-02-14T03:48:54.306Z,16.27
2023-02-14T03:51:22.586Z,21.33
2023-02-14T03:53:52.262Z,16.90
2023-02-14T03:56:19.217Z,20.33
2023-02-14T03:58:48.347Z,17.87
2023-02-14T04:01:35.505Z,19.53
2023-02-14T04:04:03.251Z,19.17
2023-02-14T04:06:30.157Z,18.47
2023-02-14T04:08:57.033Z,19.23
2023-02-14T04:11:24.634Z,19.67
2023-02-14T04:13:51.727Z,16.27
2023-02-14T04:16:18.736Z,23.77
2023-02-14T04:19:04.093Z,17.47
2023-02-14T04:21:30.977Z,21.60
2023-02-14T04:23:57.735Z,17.60
2023-02-14T04:26:24.661Z,17.17
2023-02-14T04:28:51.459Z,15.50
2023-02-14T04:31:18.728Z,16.73
2023-02-14T04:33:48.228Z,17.83
2023-02-14T04:36:15.106Z,18.53
2023-02-14T04:38:42.291Z,15.93
2023-02-14T04:41:09.186Z,13.77
2023-02-14T04:43:36.019Z,14.97
2023-02-14T04:46:02.865Z,19.93
2023-02-14T04:48:29.692Z,15.50
2023-02-14T04:50:56.584Z,15.90
2023-02-14T04:53:23.409Z,20.10
2023-02-14T04:55:50.322Z,16.50
2023-02-14T04:58:17.598Z,14.63
2023-02-14T05:00:44.466Z,20.07
2023-02-14T05:03:11.426Z,17.03
2023-02-14T05:05:38.311Z,17.27
2023-02-14T05:08:05.184Z,15.87
2023-02-14T05:10:31.961Z,16.53
2023-02-14T05:12:58.904Z,18.07
2023-02-14T05:15:25.669Z,18.47
2023-02-14T05:17:52.511Z,18.23
2023-02-14T05:20:19.604Z,16.40
2023-02-14T05:22:46.390Z,16.43
2023-02-14T05:25:13.174Z,17.27
2023-02-14T05:27:40.071Z,17.67
2023-02-14T05:30:07.184Z,18.47
2023-02-14T05:32:34.137Z,18.30
2023-02-14T05:35:01.357Z,19.00
2023-02-14T05:37:28.335Z,22.93
2023-02-14T05:39:55.130Z,20.90
2023-02-14T05:42:22.068Z,20.33
2023-02-14T05:44:48.981Z,17.93
2023-02-14T05:47:15.846Z,20.00
2023-02-14T05:49:42.729Z,20.70
2023-02-14T05:52:10.118Z,18.70
2023-02-14T05:54:37.106Z,22.57
2023-02-14T05:57:03.951Z,20.50
2023-02-14T05:59:30.713Z,23.50
2023-02-14T06:01:57.723Z,25.10
2023-02-14T06:04:24.865Z,28.80
2023-02-14T06:06:51.723Z,25.97
2023-02-14T06:09:20.014Z,26.90
2023-02-14T06:11:46.786Z,23.93
2023-02-14T06:14:13.667Z,33.13
2023-02-14T06:16:40.782Z,29.00
2023-02-14T06:19:07.782Z,29.87
2023-02-14T06:21:34.989Z,21.03
2023-02-14T06:24:01.808Z,21.10
2023-02-14T06:26:28.626Z,18.50
2023-02-14T06:28:56.252Z,21.33
2023-02-14T06:31:23.425Z,29.70
2023-02-14T06:33:50.420Z,32.83
2023-02-14T06:36:17.215Z,42.07
2023-02-14T06:38:44.321Z,32.60
2023-02-14T06:41:11.579Z,33.37
2023-02-14T06:43:39.184Z,25.33
2023-02-14T06:46:06.078Z,19.57
2023-02-14T06:48:32.936Z,19.77
2023-02-14T06:51:00.050Z,20.43
2023-02-14T06:53:27.367Z,24.60
2023-02-14T06:55:54.250Z,23.03
2023-02-14T06:58:21.425Z,25.80
2023-02-14T07:00:48.446Z,24.23
2023-02-14T07:03:15.294Z,24.93
2023-02-14T07:05:42.801Z,22.87
2023-02-14T07:08:09.550Z,24.90
2023-02-14T07:10:36.436Z,23.27
2023-02-14T07:13:03.637Z,24.40
2023-02-14T07:15:30.506Z,24.67
2023-02-14T07:17:57.438Z,21.20
2023-02-14T07:20:24.362Z,19.00
2023-02-14T07:22:51.154Z,24.23
2023-02-14T07:25:18.037Z,24.20
2023-02-14T07:27:44.913Z,21.23
2023-02-14T07:30:12.181Z,25.17
2023-02-14T07:32:39.171Z,23.53
2023-02-14T07:35:06.273Z,20.43
2023-02-14T07:37:33.987Z,21.37
2023-02-14T07:40:01.296Z,16.73
2023-02-14T07:42:28.256Z,17.90
2023-02-14T07:44:55.171Z,15.73
2023-02-14T07:47:21.940Z,15.73
2023-02-14T07:49:48.737Z,19.40
2023-02-14T07:52:16.093Z,18.97
2023-02-14T07:54:43.256Z,18.07
2023-02-14T07:57:10.061Z,15.13
2023-02-14T07:59:37.000Z,22.03
2023-02-14T08:02:03.968Z,14.63
2023-02-14T08:04:33.536Z,16.00
2023-02-14T08:07:00.788Z,18.87
2023-02-14T08:09:27.579Z,18.93
2023-02-14T08:12:14.095Z,17.07
2023-02-14T08:14:41.337Z,18.83
2023-02-14T08:17:10.168Z,15.53
2023-02-14T08:19:37.186Z,16.50
2023-02-14T08:22:04.308Z,14.63
2023-02-14T08:24:31.234Z,17.50
2023-02-14T08:26:58.184Z,17.43
2023-02-14T08:29:25.123Z,20.40
2023-02-14T08:31:53.144Z,17.90
2023-02-14T08:34:20.119Z,15.43
2023-02-14T08:36:47.677Z,19.37
2023-02-14T08:39:14.443Z,21.60
2023-02-14T08:41:41.382Z,18.37
2023-02-14T08:44:08.156Z,18.20
2023-02-14T08:46:35.132Z,15.17
2023-02-14T08:49:02.049Z,16.93
2023-02-14T08:51:29.024Z,18.17
2023-02-14T08:53:56.301Z,21.23
2023-02-14T08:56:23.502Z,14.17
2023-02-14T08:58:54.673Z,17.67
2023-02-14T09:01:21.696Z,16.33
2023-02-14T09:03:48.681Z,21.80
2023-02-14T09:06:17.670Z,18.63
2023-02-14T09:08:45.973Z,17.47
2023-02-14T09:11:14.684Z,19.30
2023-02-14T09:13:45.145Z,22.93
2023-02-14T09:16:13.060Z,19.80
2023-02-14T09:18:40.186Z,13.77
2023-02-14T09:21:08.141Z,15.73
2023-02-14T09:23:35.156Z,20.33
2023-02-14T09:26:02.709Z,14.30
2023-02-14T09:28:29.936Z,17.20
2023-02-14T09:30:57.550Z,22.57
2023-02-14T09:33:27.120Z,16.17
2023-02-14T09:36:12.490Z,20.47
2023-02-14T09:38:39.837Z,19.43
2023-02-14T09:41:07.630Z,15.53
2023-02-14T09:43:41.893Z,16.93
2023-02-14T09:46:11.851Z,14.90
2023-02-14T09:48:41.982Z,12.93
2023-02-14T09:51:13.158Z,13.63
2023-02-14T09:54:02.083Z,16.70
2023-02-14T09:56:51.902Z,13.23
2023-02-14T09:59:21.779Z,19.13
2023-02-14T10:02:09.047Z,16.47
2023-02-14T10:04:40.963Z,15.97
2023-02-14T10:07:15.415Z,16.97
2023-02-14T10:09:50.126Z,14.93
2023-02-14T10:12:22.911Z,18.10
2023-02-14T10:14:50.563Z,18.80
2023-02-14T10:17:19.815Z,12.17
2023-02-14T10:20:07.483Z,14.00
2023-02-14T10:22:44.108Z,15.93
2023-02-14T10:25:16.427Z,22.23
2023-02-14T10:27:46.273Z,18.43
2023-02-14T10:30:15.030Z,13.07
2023-02-14T10:33:00.767Z,21.17
2023-02-14T10:35:39.994Z,12.17
2023-02-14T10:38:17.661Z,15.63
2023-02-14T10:40:48.704Z,16.57
2023-02-14T10:43:30.837Z,17.80
2023-02-14T10:46:03.829Z,19.83
2023-02-14T10:48:31.169Z,20.13
2023-02-14T10:51:03.782Z,16.20
2023-02-14T10:53:42.913Z,15.83
2023-02-14T10:56:18.761Z,17.47
2023-02-14T10:58:46.679Z,15.80
2023-02-14T11:01:14.430Z,15.23
2023-02-14T11:03:51.765Z,14.20
2023-02-14T11:06:20.175Z,16.27
2023-02-14T11:08:46.960Z,15.60
2023-02-14T11:11:14.188Z,17.67
2023-02-14T11:13:41.566Z,18.80
2023-02-14T11:16:12.942Z,13.40
2023-02-14T11:18:41.155Z,12.70
2023-02-14T11:21:12.658Z,11.67
2023-02-14T11:23:43.855Z,14.07
2023-02-14T11:26:30.929Z,14.67
2023-02-14T11:29:02.455Z,15.50
2023-02-14T11:31:34.211Z,9.27
2023-02-14T11:34:03.701Z,6.57
2023-02-14T11:36:32.001Z,9.63
2023-02-14T11:39:17.630Z,9.83
2023-02-14T11:41:49.143Z,13.37
2023-02-14T11:44:22.673Z,7.70
2023-02-14T11:46:53.412Z,6.10
2023-02-14T11:49:28.614Z,10.00
2023-02-14T11:51:56.200Z,9.23
2023-02-14T11:54:29.197Z,11.80
2023-02-14T11:57:18.976Z,10.03
2023-02-14T11:59:47.913Z,12.27
2023-02-14T12:02:32.934Z,11.50
2023-02-14T12:05:18.554Z,9.70
2023-02-14T12:07:48.911Z,11.37
2023-02-14T12:10:15.877Z,11.60
2023-02-14T12:12:48.799Z,12.23
2023-02-14T12:15:24.697Z,9.93
2023-02-14T12:18:26.754Z,12.67
2023-02-14T12:21:13.154Z,7.47
2023-02-14T12:23:51.005Z,8.70
2023-02-14T12:26:40.883Z,9.87
2023-02-14T12:29:14.437Z,7.30
2023-02-14T12:31:42.180Z,12.13
2023-02-14T12:34:10.761Z,8.47
2023-02-14T12:36:58.266Z,8.57
2023-02-14T12:39:37.575Z,8.67
2023-02-14T12:42:04.573Z,10.30
2023-02-14T12:44:34.323Z,7.57
2023-02-14T12:47:04.380Z,9.87
2023-02-14T12:49:31.194Z,8.50
2023-02-14T12:52:14.749Z,12.27
2023-02-14T12:54:41.570Z,9.30
2023-02-14T12:57:14.611Z,8.73
2023-02-14T12:59:53.753Z,10.53
2023-02-14T13:02:39.459Z,11.37
2023-02-14T13:05:09.253Z,11.70
2023-02-14T13:07:38.278Z,12.70
2023-02-14T13:10:13.530Z,9.73
2023-02-14T13:13:02.546Z,10.10
2023-02-14T13:16:01.603Z,9.43
2023-02-14T13:18:31.995Z,9.40
2023-02-14T13:21:01.855Z,11.23
2023-02-14T13:23:42.285Z,10.23
2023-02-14T13:26:09.069Z,12.83
2023-02-14T13:28:37.678Z,9.20
2023-02-14T13:31:05.198Z,9.80
2023-02-14T13:33:41.697Z,12.93
2023-02-14T13:36:10.769Z,10.60
2023-02-14T13:38:42.654Z,7.77
2023-02-14T13:41:09.700Z,10.80
2023-02-14T13:43:45.369Z,10.57
2023-02-14T13:46:12.519Z,8.03
2023-02-14T13:48:40.265Z,10.13
2023-02-14T13:51:08.454Z,9.77
2023-02-14T13:53:40.336Z,11.47
2023-02-14T13:56:13.360Z,7.90
2023-02-14T13:59:06.398Z,9.07
2023-02-14T14:01:51.853Z,7.13
2023-02-14T14:04:28.309Z,8.83
2023-02-14T14:07:01.473Z,7.50
2023-02-14T14:09:43.482Z,9.60
2023-02-14T14:12:30.657Z,10.70
2023-02-14T14:15:06.537Z,10.10
2023-02-14T14:17:35.274Z,7.40
2023-02-14T14:20:04.479Z,8.63
2023-02-14T14:22:31.456Z,10.93
2023-02-14T14:25:02.725Z,9.33
2023-02-14T14:27:32.344Z,9.63
2023-02-14T14:29:59.224Z,13.07
2023-02-14T14:32:26.491Z,11.53
2023-02-14T14:34:55.101Z,8.50
2023-02-14T14:37:32.611Z,10.37
2023-02-14T14:40:01.548Z,12.13
2023-02-14T14:42:30.726Z,11.27
2023-02-14T14:44:59.954Z,8.70
2023-02-14T14:47:28.562Z,10.73
2023-02-14T14:49:59.300Z,14.37
2023-02-14T14:52:34.761Z,10.27
2023-02-14T14:55:03.175Z,14.73
2023-02-14T14:57:30.203Z,19.00
2023-02-14T15:00:23.455Z,13.23
2023-02-14T15:03:09.192Z,32.97
2023-02-14T15:05:36.162Z,12.13
2023-02-14T15:08:21.868Z,13.07
2023-02-14T15:10:56.794Z,57.67
2023-02-14T15:13:48.232Z,31.60
2023-02-14T15:16:21.216Z,58.47
2023-02-14T15:18:49.516Z,18.87
2023-02-14T15:21:16.979Z,5.87
2023-02-14T15:23:46.769Z,12.03
2023-02-14T15:26:24.410Z,10.73
2023-02-14T15:28:55.432Z,18.53
2023-02-14T15:31:22.894Z,21.53
2023-02-14T15:33:49.891Z,17.97
2023-02-14T15:36:19.322Z,16.37
2023-02-14T15:38:47.630Z,14.00
2023-02-14T15:41:16.061Z,15.10
2023-02-14T15:43:43.420Z,14.40
2023-02-14T15:46:16.371Z,34.27
2023-02-14T15:48:44.379Z,47.90
2023-02-14T15:51:16.303Z,28.23
2023-02-14T15:53:50.381Z,16.70
2023-02-14T15:56:20.702Z,21.50
2023-02-14T15:58:47.996Z,11.53
2023-02-14T16:01:15.065Z,13.63
2023-02-14T16:03:49.437Z,13.73
2023-02-14T16:06:29.460Z,26.10
2023-02-14T16:08:56.752Z,121.20
2023-02-14T16:11:41.521Z,46.77
2023-02-14T16:14:27.047Z,25.03
2023-02-14T16:17:01.641Z,27.47
2023-02-14T16:19:36.807Z,17.00
2023-02-14T16:22:04.085Z,16.77
2023-02-14T16:24:31.236Z,75.53
2023-02-14T16:26:58.389Z,87.67
2023-02-14T16:29:25.237Z,71.37
2023-02-14T16:32:15.147Z,88.27
2023-02-14T16:34:41.477Z,84.10
2023-02-14T16:37:09.743Z,57.83
2023-02-14T16:39:39.111Z,37.10
2023-02-14T16:42:05.988Z,27.77
2023-02-14T16:44:33.567Z,25.17
2023-02-14T16:47:01.922Z,25.97
2023-02-14T16:49:28.791Z,29.10
2023-02-14T16:51:55.625Z,26.10
2023-02-14T16:54:24.119Z,40.40
2023-02-14T16:56:51.867Z,28.30
2023-02-14T16:59:19.503Z,53.33
2023-02-14T17:01:46.739Z,56.13
2023-02-14T17:04:13.856Z,106.27
2023-02-14T17:06:43.230Z,95.30
2023-02-14T17:09:11.561Z,71.40
2023-02-14T17:11:40.199Z,53.50
2023-02-14T17:14:07.518Z,32.17
2023-02-14T17:16:34.579Z,28.13
2023-02-14T17:19:02.225Z,32.53
2023-02-14T17:21:29.157Z,19.37
2023-02-14T17:23:57.018Z,19.57
2023-02-14T17:26:24.063Z,17.90
2023-02-14T17:28:51.473Z,32.87
2023-02-14T17:31:19.073Z,49.20
2023-02-14T17:33:46.413Z,64.80
2023-02-14T17:36:14.766Z,45.23
2023-02-14T17:38:44.126Z,56.43
2023-02-14T17:41:15.973Z,46.27
2023-02-14T17:43:44.074Z,35.17
2023-02-14T17:46:11.657Z,48.13
2023-02-14T17:48:38.523Z,66.03
2023-02-14T17:51:07.023Z,53.13
2023-02-14T17:53:34.953Z,63.97
2023-02-14T17:56:10.236Z,59.33
2023-02-14T17:58:37.059Z,73.43
2023-02-14T18:01:06.112Z,120.73
2023-02-14T18:03:34.107Z,103.90
2023-02-14T18:06:01.895Z,105.53
2023-02-14T18:08:29.705Z,33.40
2023-02-14T18:10:56.956Z,26.93
2023-02-14T18:13:25.106Z,33.90
2023-02-14T18:15:54.940Z,24.97
2023-02-14T18:18:21.775Z,30.23
2023-02-14T18:20:53.122Z,62.47
2023-02-14T18:23:20.950Z,76.33
2023-02-14T18:25:54.310Z,57.63
2023-02-14T18:28:23.268Z,60.87
2023-02-14T18:30:50.106Z,83.53
2023-02-14T18:33:18.159Z,51.80
2023-02-14T18:35:45.580Z,45.47
2023-02-14T18:38:13.030Z,53.40
2023-02-14T18:40:40.483Z,76.40
2023-02-14T18:43:07.602Z,48.23
2023-02-14T18:45:38.855Z,69.33
2023-02-14T18:48:05.836Z,34.37
2023-02-14T18:50:33.725Z,47.40
2023-02-14T18:53:00.785Z,43.03
2023-02-14T18:55:29.073Z,42.20
2023-02-14T18:57:56.384Z,43.37
2023-02-14T19:00:23.575Z,56.07
2023-02-14T19:02:50.510Z,64.90
2023-02-14T19:05:17.604Z,58.67
2023-02-14T19:07:44.816Z,49.37
2023-02-14T19:10:12.790Z,54.90
2023-02-14T19:12:40.084Z,52.60
2023-02-14T19:15:08.115Z,61.27
2023-02-14T19:17:35.286Z,60.43
2023-02-14T19:20:08.545Z,48.67
2023-02-14T19:22:39.454Z,59.83
2023-02-14T19:25:06.968Z,64.07
2023-02-14T19:27:34.476Z,55.50
2023-02-14T19:30:01.895Z,54.10
2023-02-14T19:32:29.126Z,52.40
2023-02-14T19:34:56.015Z,52.27
2023-02-14T19:37:22.812Z,60.07
2023-02-14T19:39:49.761Z,60.70
2023-02-14T19:42:17.039Z,52.87
2023-02-14T19:44:45.558Z,51.23
2023-02-14T19:47:28.786Z,48.03
2023-02-14T19:49:59.811Z,62.87
2023-02-14T19:52:28.314Z,58.63
2023-02-14T19:54:57.884Z,51.43
2023-02-14T19:57:25.204Z,54.80
2023-02-14T19:59:52.034Z,43.77
2023-02-14T20:02:20.125Z,48.70
2023-02-14T20:04:47.107Z,50.60
2023-02-14T20:07:13.964Z,49.40
2023-02-14T20:09:40.758Z,44.20
2023-02-14T20:12:07.720Z,41.57
2023-02-14T20:14:49.818Z,37.77
2023-02-14T20:17:18.359Z,36.10
2023-02-14T20:19:45.289Z,34.17
2023-02-14T20:22:12.225Z,33.23
2023-02-14T20:24:39.057Z,37.07
2023-02-14T20:27:06.057Z,27.57
2023-02-14T20:29:33.337Z,34.27
2023-02-14T20:32:03.526Z,31.70
2023-02-14T20:34:30.729Z,33.13
2023-02-14T20:36:59.355Z,19.63
2023-02-14T20:39:30.777Z,17.60
2023-02-14T20:41:57.878Z,16.77
2023-02-14T20:44:24.715Z,19.17
2023-02-14T20:46:52.977Z,18.57
2023-02-14T20:49:21.246Z,26.80
2023-02-14T20:51:49.838Z,26.60
2023-02-14T20:54:17.350Z,31.10
2023-02-14T20:56:44.285Z,27.57
2023-02-14T20:59:11.520Z,29.33
2023-02-14T21:01:38.770Z,28.13
2023-02-14T21:04:06.116Z,50.13
2023-02-14T21:06:35.180Z,37.93
2023-02-14T21:09:03.400Z,40.90
2023-02-14T21:11:30.193Z,34.77
2023-02-14T21:13:59.646Z,31.97
2023-02-14T21:16:27.456Z,45.77
2023-02-14T21:18:59.353Z,30.63
2023-02-14T21:21:33.954Z,40.43
2023-02-14T21:24:01.612Z,29.37
2023-02-14T21:26:29.309Z,23.00
2023-02-14T21:28:56.640Z,24.50
2023-02-14T21:31:26.005Z,24.97
2023-02-14T21:33:54.319Z,28.30
2023-02-14T21:36:22.473Z,34.27
2023-02-14T21:38:50.489Z,34.67
2023-02-14T21:41:21.939Z,31.40
2023-02-14T21:43:49.787Z,26.90
2023-02-14T21:46:17.777Z,26.30
2023-02-14T21:49:03.617Z,26.73
2023-02-14T21:51:31.175Z,26.70
2023-02-14T21:54:00.163Z,22.67
2023-02-14T21:56:27.534Z,24.90
2023-02-14T21:58:55.534Z,29.83
2023-02-14T22:01:23.933Z,32.60
2023-02-14T22:03:50.841Z,28.20
2023-02-14T22:06:18.462Z,23.40
2023-02-14T22:08:45.303Z,30.13
2023-02-14T22:11:13.331Z,27.07
2023-02-14T22:13:40.418Z,27.93
2023-02-14T22:16:08.620Z,27.90
2023-02-14T22:18:35.486Z,26.77
2023-02-14T22:21:07.043Z,27.07
2023-02-14T22:23:34.519Z,23.20
2023-02-14T22:26:12.547Z,25.77
2023-02-14T22:28:39.907Z,37.30
2023-02-14T22:31:06.808Z,18.30
2023-02-14T22:33:33.834Z,15.30
2023-02-14T22:36:01.317Z,16.30
2023-02-14T22:38:28.716Z,17.53
2023-02-14T22:40:55.571Z,18.37
2023-02-14T22:43:22.798Z,19.40
2023-02-14T22:45:49.946Z,13.60
2023-02-14T22:48:18.026Z,16.47
2023-02-14T22:50:44.980Z,34.63
2023-02-14T22:53:11.938Z,15.63
2023-02-14T22:55:40.022Z,18.90
2023-02-14T22:58:06.953Z,15.17
2023-02-14T23:00:33.728Z,16.07
2023-02-14T23:03:00.664Z,18.27
2023-02-14T23:05:27.512Z,16.97
2023-02-14T23:07:54.290Z,17.77
2023-02-14T23:10:21.316Z,21.90
2023-02-14T23:13:06.697Z,17.07
2023-02-14T23:15:51.946Z,19.10
2023-02-14T23:18:37.683Z,19.13
2023-02-14T23:21:27.596Z,20.43
2023-02-14T23:23:55.211Z,20.20
2023-02-14T23:26:22.163Z,20.57
2023-02-14T23:28:49.994Z,16.63
2023-02-14T23:31:17.389Z,21.77
2023-02-14T23:33:44.538Z,17.77
2023-02-14T23:36:11.939Z,19.40
2023-02-14T23:38:38.766Z,20.23
2023-02-14T23:41:30.327Z,18.07
2023-02-14T23:43:57.502Z,15.83
2023-02-14T23:46:25.324Z,18.40
2023-02-14T23:48:52.223Z,19.13
2023-02-14T23:51:19.883Z,15.97
2023-02-14T23:53:47.229Z,21.40
2023-02-14T23:56:14.162Z,18.83
2023-02-14T23:58:43.113Z,18.67
